Albany, Ohio
Current Conditions -  °F | °C
As of 8:35 AM on Friday 31 Oct 2014 (Local Time) from KUNI Reporting Station
Moderate Rain Moderate Rain  
Wind Chill: 39°   Ceiling: 3000
Heat Index: 39°   Visibility: 10mi
Dew Point: 37°   Wind: 0mph
Humidity: 91%   Direction: NA
Pressure: 29.98"   Gusts: NA
Location:  39.23°N, 82.2°W
Report Text: KUNI 311235Z AUTO 00000KT 10SM RA OVC030 04/03 A2998 RMK AO2 T00400027
Loading
Personal Weather Stations






























Interactive Weather Map
Tropical Storm Tracking
New forecast layout! Learn more

10-Day Weather Forecast

Advertisements
Track Severe Weather on mobile